Time;durP1;ratioP1;P1;durP2;ratioP2;P2;SDS_P1;SDS_P2;PMS_P1;PMS_P2;Temp;Humidity;BMP_temperature;BMP_pressure;BME280_temperature;BME280_humidity;BME280_pressure;Samples;Min_cycle;Max_cycle;Signal;HPM_P1;HPM_P2
2021/09/13 00:02:09;;;;;;;24.93;21.80;;;;;;;13.27;86.62;100324.87;1678153;84;21277;-70
2021/09/13 00:04:36;;;;;;;23.80;21.30;;;;;;;13.25;86.66;100323.55;1687821;84;21177;-71
2021/09/13 00:07:03;;;;;;;24.83;22.13;;;;;;;13.26;86.61;100327.30;1692827;83;21399;-71
2021/09/13 00:09:32;;;;;;;24.77;22.37;;;;;;;13.26;86.59;100320.59;1686831;83;21429;-72
2021/09/13 00:11:58;;;;;;;27.27;24.30;;;;;;;13.27;86.64;100324.08;1689026;83;21314;-71
2021/09/13 00:14:28;;;;;;;26.93;24.03;;;;;;;13.27;86.66;100326.21;1682607;83;21459;-72
2021/09/13 00:16:55;;;;;;;26.17;23.37;;;;;;;13.31;86.81;100325.11;1667523;84;21191;-72
2021/09/13 00:19:23;;;;;;;25.90;23.23;;;;;;;13.31;86.92;100320.54;1683015;83;21175;-72
2021/09/13 00:21:54;;;;;;;25.73;23.10;;;;;;;13.26;86.92;100315.23;1676423;83;21396;-73
2021/09/13 00:24:23;;;;;;;27.00;23.97;;;;;;;13.23;86.96;100318.44;1674080;84;21764;-72
2021/09/13 00:26:52;;;;;;;25.67;23.07;;;;;;;13.22;86.90;100310.66;1675763;84;21805;-73
2021/09/13 00:29:21;;;;;;;26.27;23.27;;;;;;;13.22;86.87;100310.66;1677430;83;22105;-73
2021/09/13 00:31:50;;;;;;;26.63;23.40;;;;;;;13.20;86.91;100312.30;1682212;83;21991;-73
2021/09/13 00:34:17;;;;;;;25.60;22.90;;;;;;;13.18;87.01;100314.45;1688162;83;21458;-72
2021/09/13 00:36:46;;;;;;;27.77;23.07;;;;;;;13.18;87.03;100312.31;1684010;83;21300;-72
2021/09/13 00:39:15;;;;;;;28.73;23.47;;;;;;;13.18;86.96;100316.33;1688924;83;21236;-72
2021/09/13 00:41:44;;;;;;;26.30;22.77;;;;;;;13.12;86.97;100308.86;1686888;83;21252;-73
2021/09/13 00:44:12;;;;;;;26.63;22.50;;;;;;;13.09;86.96;100308.07;1677765;84;21258;-72
2021/09/13 00:46:39;;;;;;;29.47;23.93;;;;;;;13.06;86.88;100305.95;1683811;83;21859;-72
2021/09/13 00:49:07;;;;;;;29.17;24.47;;;;;;;12.97;86.88;100310.33;1684502;83;21300;-72
2021/09/13 00:51:34;;;;;;;26.77;23.50;;;;;;;12.91;87.04;100302.84;1692393;83;21201;-72
2021/09/13 00:54:00;;;;;;;26.83;23.87;;;;;;;12.89;87.09;100309.02;1685120;83;21856;-71
2021/09/13 00:56:29;;;;;;;26.37;22.33;;;;;;;12.87;87.07;100297.25;1671301;84;21393;-71
2021/09/13 00:58:57;;;;;;;25.23;22.50;;;;;;;12.87;87.10;100307.17;1687269;83;21247;-71
2021/09/13 01:01:24;;;;;;;24.70;22.13;;;;;;;12.85;87.20;100302.07;1686175;83;21323;-70
2021/09/13 01:03:50;;;;;;;24.17;21.30;;;;;;;12.88;87.18;100303.41;1683933;83;21922;-70
2021/09/13 01:06:17;;;;;;;23.70;21.17;;;;;;;12.87;87.07;100306.62;1681267;84;21400;-70
2021/09/13 01:08:46;;;;;;;27.53;24.60;;;;;;;12.88;86.97;100305.54;1671806;83;21318;-70
2021/09/13 01:11:14;;;;;;;30.63;27.47;;;;;;;12.89;86.94;100310.36;1682021;83;21326;-70
2021/09/13 01:13:43;;;;;;;30.90;27.60;;;;;;;12.91;87.14;100309.00;1690285;83;21158;-71
2021/09/13 01:16:09;;;;;;;28.83;25.07;;;;;;;12.95;87.52;100305.77;1687295;83;21331;-73
2021/09/13 01:18:38;;;;;;;26.63;23.73;;;;;;;13.01;87.91;100315.38;1673492;83;21255;-72
2021/09/13 01:21:06;;;;;;;29.27;24.97;;;;;;;13.04;87.95;100304.10;1677356;83;21794;-72
2021/09/13 01:23:35;;;;;;;24.77;22.17;;;;;;;13.03;88.17;100305.98;1685725;83;21199;-72
2021/09/13 01:26:06;;;;;;;26.40;23.67;;;;;;;13.04;88.36;100304.90;1693314;83;21198;-70
2021/09/13 01:28:37;;;;;;;27.13;23.90;;;;;;;13.04;88.31;100307.58;1682556;83;21336;-71
2021/09/13 01:31:06;;;;;;;24.67;21.15;;;;;;;13.07;88.29;100311.59;1688253;83;21378;-71
2021/09/13 01:33:34;;;;;;;26.23;23.43;;;;;;;13.09;88.21;100310.75;1690684;83;21094;-70
2021/09/13 01:36:03;;;;;;;25.33;22.73;;;;;;;13.09;87.98;100314.77;1691193;83;21226;-71
2021/09/13 01:38:31;;;;;;;25.30;22.60;;;;;;;13.08;87.78;100311.30;1708184;82;21852;-70
2021/09/13 01:40:59;;;;;;;26.50;23.90;;;;;;;13.08;87.61;100303.25;1687938;83;21835;-72
2021/09/13 01:43:25;;;;;;;26.30;23.50;;;;;;;13.05;87.38;100304.35;1687157;83;21200;-71
2021/09/13 01:45:52;;;;;;;26.53;23.93;;;;;;;13.02;87.29;100307.59;1707501;83;21350;-72
2021/09/13 01:48:19;;;;;;;27.00;24.23;;;;;;;13.01;87.17;100300.09;1690230;83;21509;-72
2021/09/13 01:50:47;;;;;;;26.60;23.93;;;;;;;13.00;87.05;100300.39;1686221;83;21226;-72
2021/09/13 01:53:14;;;;;;;26.73;23.83;;;;;;;12.98;86.88;100307.89;1690502;83;21144;-70
2021/09/13 01:55:42;;;;;;;28.37;24.80;;;;;;;12.92;86.74;100303.09;1684040;83;21332;-70
2021/09/13 01:58:10;;;;;;;26.43;23.63;;;;;;;12.88;86.64;100307.42;1691099;83;21792;-71
2021/09/13 02:00:37;;;;;;;26.33;23.67;;;;;;;12.85;86.65;100314.13;1694472;83;21610;-71
2021/09/13 02:03:04;;;;;;;26.37;23.70;;;;;;;12.85;86.62;100309.31;1684791;83;21291;-71
2021/09/13 02:05:34;;;;;;;26.60;23.80;;;;;;;12.84;86.56;100313.09;1685987;83;21656;-72
2021/09/13 02:08:04;;;;;;;25.77;23.17;;;;;;;12.83;86.45;100310.95;1692471;83;21847;-71
2021/09/13 02:10:30;;;;;;;25.07;22.57;;;;;;;12.84;86.20;100310.41;1696641;83;21930;-72
2021/09/13 02:12:58;;;;;;;24.93;22.43;;;;;;;12.82;85.97;100310.66;1684597;83;21287;-71
2021/09/13 02:15:26;;;;;;;24.90;22.40;;;;;;;12.79;85.84;100305.86;1700502;83;21464;-71
2021/09/13 02:17:54;;;;;;;24.80;22.07;;;;;;;12.79;85.68;100313.89;1690735;83;21251;-71
2021/09/13 02:20:20;;;;;;;24.50;22.00;;;;;;;12.77;85.51;100311.25;1668609;83;21127;-71
2021/09/13 02:22:47;;;;;;;24.03;21.63;;;;;;;12.74;85.31;100309.92;1691633;83;21038;-71
2021/09/13 02:25:17;;;;;;;25.23;22.80;;;;;;;12.72;85.14;100308.59;1685171;83;21359;-71
2021/09/13 02:27:45;;;;;;;23.80;21.30;;;;;;;12.68;84.95;100307.01;1687187;84;21212;-71
2021/09/13 02:30:12;;;;;;;24.43;20.97;;;;;;;12.63;84.75;100307.02;1685944;83;21343;-71
2021/09/13 02:32:39;;;;;;;23.77;21.37;;;;;;;12.60;84.58;100310.25;1694619;83;21380;-71
2021/09/13 02:35:07;;;;;;;23.90;21.50;;;;;;;12.57;84.43;100314.82;1705495;83;21262;-71
2021/09/13 02:37:36;;;;;;;23.53;21.33;;;;;;;12.54;84.30;100308.70;1692474;83;21291;-71
2021/09/13 02:40:05;;;;;;;24.10;21.70;;;;;;;12.49;84.21;100310.05;1687882;83;21191;-72
2021/09/13 02:42:33;;;;;;;23.37;21.17;;;;;;;12.46;84.25;100308.72;1684754;83;21323;-70
2021/09/13 02:45:00;;;;;;;25.47;22.90;;;;;;;12.42;84.24;100319.19;1691941;83;21366;-70
2021/09/13 02:47:28;;;;;;;24.63;22.13;;;;;;;12.37;84.29;100312.53;1694056;83;21339;-70
2021/09/13 02:49:54;;;;;;;24.57;22.10;;;;;;;12.37;84.40;100317.05;1671174;83;21901;-70
2021/09/13 02:52:23;;;;;;;23.87;21.57;;;;;;;12.34;84.40;100316.27;1686506;83;21146;-71
2021/09/13 02:54:50;;;;;;;23.40;21.00;;;;;;;12.33;84.37;100311.45;1690515;84;21429;-70
2021/09/13 02:57:17;;;;;;;23.90;21.50;;;;;;;12.33;84.36;100315.47;1652142;85;21708;-70
2021/09/13 02:59:47;;;;;;;24.20;21.90;;;;;;;12.32;84.29;100309.06;1643910;87;21272;-70
2021/09/13 03:02:15;;;;;;;24.17;21.63;;;;;;;12.32;84.25;100316.55;1650526;85;21209;-70
2021/09/13 03:04:42;;;;;;;22.97;20.77;;;;;;;12.30;84.16;100313.88;1613144;86;21827;-70
2021/09/13 03:07:12;;;;;;;22.63;20.43;;;;;;;12.28;84.06;100315.50;1656042;85;21377;-71
2021/09/13 03:09:41;;;;;;;22.93;20.60;;;;;;;12.27;83.95;100313.88;1637238;87;21108;-71
2021/09/13 03:12:09;;;;;;;23.50;21.20;;;;;;;12.27;83.87;100313.09;1629540;86;21406;-71
2021/09/13 03:14:36;;;;;;;22.57;20.40;;;;;;;12.25;83.79;100320.61;1633666;86;21314;-71
2021/09/13 03:17:03;;;;;;;23.43;20.93;;;;;;;12.22;83.67;100319.81;1663403;85;21342;-71
2021/09/13 03:19:30;;;;;;;22.53;20.43;;;;;;;12.17;83.63;100317.42;1639283;86;21280;-72
2021/09/13 03:21:57;;;;;;;22.83;20.30;;;;;;;12.14;83.55;100317.14;1656404;86;21830;-71
2021/09/13 03:24:26;;;;;;;22.43;20.37;;;;;;;12.12;83.53;100321.45;1644934;85;21203;-70
2021/09/13 03:26:55;;;;;;;21.93;19.63;;;;;;;12.10;83.54;100321.45;1640372;86;21363;-71
2021/09/13 03:29:24;;;;;;;22.87;20.63;;;;;;;12.05;83.41;100315.59;1635905;87;21057;-71
2021/09/13 03:31:50;;;;;;;22.57;20.37;;;;;;;11.92;83.36;100312.94;1659469;86;21144;-70
2021/09/13 03:34:19;;;;;;;22.73;20.47;;;;;;;11.78;83.59;100318.56;1650628;85;21328;-71
2021/09/13 03:36:50;;;;;;;23.93;21.60;;;;;;;11.73;83.80;100313.21;1624408;86;20988;-72
2021/09/13 03:39:16;;;;;;;23.80;21.50;;;;;;;11.71;84.01;100311.33;1642705;85;21897;-71
2021/09/13 03:41:45;;;;;;;23.70;21.50;;;;;;;11.68;84.09;100315.37;1649511;86;21779;-71
2021/09/13 03:44:11;;;;;;;22.83;20.67;;;;;;;11.62;84.21;100314.31;1642621;85;21417;-71
2021/09/13 03:46:38;;;;;;;22.97;20.87;;;;;;;11.60;84.39;100316.44;1633881;86;21465;-71
2021/09/13 03:49:17;;;;;;;23.30;21.10;;;;;;;11.58;84.55;100318.57;1611357;87;21229;-71
2021/09/13 03:51:45;;;;;;;22.70;20.70;;;;;;;11.60;84.70;100315.11;1613949;87;21351;-71
2021/09/13 03:54:12;;;;;;;22.47;20.37;;;;;;;11.63;84.79;100317.24;1640964;85;21345;-70
2021/09/13 03:56:39;;;;;;;22.73;20.73;;;;;;;11.65;84.81;100316.45;1638565;86;21681;-71
2021/09/13 03:59:07;;;;;;;22.30;20.30;;;;;;;11.65;84.83;100320.46;1628468;87;21296;-71
2021/09/13 04:01:33;;;;;;;19.87;18.07;;;;;;;11.68;84.93;100324.73;1644390;85;21238;-71
2021/09/13 04:04:04;;;;;;;21.10;19.20;;;;;;;11.72;85.02;100316.97;1627543;86;21307;-71
2021/09/13 04:11:54;;;;;;;19.90;18.10;;;;;;;11.82;85.21;100314.27;1621808;86;21323;-72
2021/09/13 04:14:42;;;;;;;19.77;17.97;;;;;;;11.83;85.28;100318.54;1616888;87;21397;-71
2021/09/13 04:17:11;;;;;;;19.50;17.70;;;;;;;11.88;85.40;100321.25;1630568;86;21478;-72
2021/09/13 04:19:42;;;;;;;19.80;17.95;;;;;;;11.94;85.49;100319.34;1634579;86;21245;-71
2021/09/13 04:22:15;;;;;;;19.00;17.30;;;;;;;11.98;85.48;100316.41;1647975;86;21554;-71
2021/09/13 04:24:57;;;;;;;18.40;16.80;;;;;;;11.98;85.64;100317.75;1630626;87;21335;-71
2021/09/13 04:27:41;;;;;;;18.70;17.00;;;;;;;11.98;85.83;100319.09;1633411;86;21590;-71
2021/09/13 04:30:20;;;;;;;18.90;17.10;;;;;;;12.07;86.06;100327.34;1637116;86;21227;-70
2021/09/13 04:33:06;;;;;;;18.73;17.03;;;;;;;12.16;86.18;100325.17;1640189;86;21331;-70
2021/09/13 04:35:53;;;;;;;19.10;17.20;;;;;;;12.30;86.26;100324.59;1558165;90;21578;-71
2021/09/13 04:38:27;;;;;;;19.17;17.37;;;;;;;12.42;86.25;100330.44;1560302;90;21645;-70
2021/09/13 04:41:01;;;;;;;19.03;17.33;;;;;;;12.54;86.27;100326.11;1588026;87;21411;-71
2021/09/13 04:43:39;;;;;;;19.20;17.40;;;;;;;12.66;86.27;100328.70;1627838;86;21597;-70
2021/09/13 04:46:19;;;;;;;20.00;18.00;;;;;;;12.77;86.17;100326.80;1614143;86;21411;-72
2021/09/13 04:49:05;;;;;;;21.23;19.23;;;;;;;12.88;86.09;100325.64;1625959;86;21499;-72
2021/09/13 04:51:51;;;;;;;20.37;18.47;;;;;;;12.99;86.06;100324.23;1642443;86;21358;-71
2021/09/13 04:54:20;;;;;;;21.10;19.10;;;;;;;13.11;86.07;100317.98;1620343;86;21334;-71
2021/09/13 04:56:47;;;;;;;21.03;19.00;;;;;;;13.23;85.95;100321.13;1628043;86;21510;-72
2021/09/13 04:59:14;;;;;;;19.70;17.83;;;;;;;13.35;85.99;100318.09;1636547;86;21400;-71
2021/09/13 05:01:41;;;;;;;19.13;17.23;;;;;;;13.47;86.00;100312.38;1625790;86;21335;-71
2021/09/13 05:04:09;;;;;;;18.73;16.93;;;;;;;13.59;85.96;100312.27;1630163;85;21294;-71
2021/09/13 05:06:38;;;;;;;18.47;16.77;;;;;;;13.71;85.80;100314.55;1643972;85;21841;-71
2021/09/13 05:09:05;;;;;;;18.60;16.90;;;;;;;13.86;85.73;100310.12;1655097;85;21891;-71
2021/09/13 05:11:34;;;;;;;18.80;16.90;;;;;;;14.01;85.62;100305.92;1651096;86;21294;-71
2021/09/13 05:14:02;;;;;;;19.63;17.73;;;;;;;14.18;85.60;100302.77;1637345;86;21348;-72
2021/09/13 05:16:33;;;;;;;19.97;18.00;;;;;;;14.35;85.48;100303.11;1635452;86;21518;-72
2021/09/13 05:19:02;;;;;;;21.50;19.40;;;;;;;14.49;85.34;100303.99;1641699;86;21509;-72
2021/09/13 05:21:32;;;;;;;21.63;19.23;;;;;;;14.80;85.24;100300.11;1612445;86;21429;-71
2021/09/13 05:24:00;;;;;;;23.70;19.47;;;;;;;14.96;84.78;100293.41;1640674;87;22104;-70
2021/09/13 05:26:27;;;;;;;22.63;20.30;;;;;;;15.09;84.35;100295.36;1636458;85;21758;-71
2021/09/13 05:28:55;;;;;;;22.70;20.40;;;;;;;15.09;84.35;100295.36;1637672;86;21630;-71
2021/09/13 05:31:21;;;;;;;22.97;20.57;;;;;;;15.20;84.37;100292.78;1658064;85;21870;-71
2021/09/13 05:33:48;;;;;;;25.63;22.07;;;;;;;15.32;84.41;100293.64;1624049;86;21828;-71
2021/09/13 05:36:16;;;;;;;24.53;21.93;;;;;;;15.47;84.36;100293.39;1632755;86;21813;-71
2021/09/13 05:38:43;;;;;;;26.40;21.77;;;;;;;15.63;84.29;100296.62;1613322;87;21789;-71
2021/09/13 05:41:14;;;;;;;22.32;20.10;;;;;;;15.80;84.20;100294.72;1625058;86;22380;-70
2021/09/13 05:43:43;;;;;;;23.20;20.87;;;;;;;15.92;83.77;100295.56;1632583;86;21076;-71
2021/09/13 05:46:09;;;;;;;22.63;20.20;;;;;;;16.05;83.38;100292.07;1661926;85;22376;-72
2021/09/13 05:48:36;;;;;;;22.70;18.80;;;;;;;16.19;82.99;100288.05;1641625;85;21784;-70
2021/09/13 05:51:03;;;;;;;22.93;18.63;;;;;;;16.36;82.33;100292.81;1649772;85;21090;-71
2021/09/13 05:53:30;;;;;;;22.70;19.40;;;;;;;16.50;81.59;100294.92;1628964;86;21768;-70
2021/09/13 05:55:56;;;;;;;22.30;18.77;;;;;;;16.66;80.85;100292.70;1624582;86;21061;-72
2021/09/13 05:58:24;;;;;;;24.00;18.43;;;;;;;16.79;79.99;100289.19;1627327;86;21174;-70
2021/09/13 06:00:53;;;;;;;21.27;18.03;;;;;;;16.96;79.30;100288.53;1649228;85;21134;-70
2021/09/13 06:03:21;;;;;;;20.57;17.70;;;;;;;17.09;78.57;100294.97;1662328;85;21111;-70
2021/09/13 06:05:52;;;;;;;20.70;17.17;;;;;;;17.20;77.91;100288.77;1642476;85;21007;-72
2021/09/13 06:08:21;;;;;;;21.17;17.70;;;;;;;17.32;77.35;100286.31;1652901;85;21775;-72
2021/09/13 06:10:48;;;;;;;19.27;16.33;;;;;;;17.45;76.59;100294.09;1619341;86;21267;-72
2021/09/13 06:13:17;;;;;;;22.07;16.47;;;;;;;17.56;75.80;100288.11;1643142;86;21468;-70
2021/09/13 06:15:44;;;;;;;23.43;16.07;;;;;;;17.68;74.82;100286.19;1630732;86;21089;-70
2021/09/13 06:18:11;;;;;;;21.57;16.27;;;;;;;17.78;73.68;100288.64;1598785;86;21129;-72
2021/09/13 06:20:39;;;;;;;19.13;15.33;;;;;;;17.93;72.65;100286.62;1649961;85;21102;-71
2021/09/13 06:23:06;;;;;;;20.00;15.37;;;;;;;18.04;71.46;100288.74;1622905;87;21135;-70
2021/09/13 06:25:34;;;;;;;17.20;14.40;;;;;;;18.15;70.45;100287.09;1616879;86;21150;-71
2021/09/13 06:28:01;;;;;;;18.17;14.90;;;;;;;18.26;69.56;100288.38;1621214;87;21593;-70
2021/09/13 06:30:30;;;;;;;20.23;16.27;;;;;;;18.36;68.50;100293.52;1640163;85;21033;-71
2021/09/13 06:32:59;;;;;;;22.57;14.30;;;;;;;18.48;67.96;100290.19;1630716;86;21056;-71
2021/09/13 06:35:28;;;;;;;18.73;15.43;;;;;;;18.60;67.39;100289.02;1637832;86;21885;-71
2021/09/13 06:38:03;;;;;;;17.07;14.40;;;;;;;18.69;67.32;100293.05;1623745;86;21116;-72
2021/09/13 06:40:30;;;;;;;20.43;15.60;;;;;;;18.82;67.19;100292.16;1620937;86;21094;-72
2021/09/13 06:42:59;;;;;;;20.57;14.83;;;;;;;18.95;66.63;100285.80;1625381;86;21046;-74
2021/09/13 06:45:26;;;;;;;18.27;14.37;;;;;;;19.10;66.10;100288.55;1621889;86;21130;-71
2021/09/13 06:47:52;;;;;;;20.40;15.40;;;;;;;19.23;65.81;100286.78;1623339;86;21144;-74
2021/09/13 06:50:25;;;;;;;20.10;14.40;;;;;;;19.35;64.76;100285.57;1634817;86;21076;-73
2021/09/13 06:52:53;;;;;;;18.73;15.33;;;;;;;19.47;64.07;100284.09;1619821;86;21070;-75
2021/09/13 06:55:21;;;;;;;21.13;15.60;;;;;;;19.57;63.64;100288.59;1640198;85;21053;-73
2021/09/13 06:57:50;;;;;;;18.47;14.87;;;;;;;19.67;63.32;100282.06;1641159;85;46976;-77
2021/09/13 07:00:18;;;;;;;20.10;15.50;;;;;;;19.77;62.17;100292.54;1637743;85;21775;-78
2021/09/13 07:02:45;;;;;;;19.50;14.47;;;;;;;19.88;61.67;100288.93;1626310;87;21164;-75
2021/09/13 07:05:12;;;;;;;19.03;14.87;;;;;;;20.01;61.53;100292.54;1626798;86;21086;-69
2021/09/13 07:07:42;;;;;;;20.73;13.83;;;;;;;20.10;60.92;100291.91;1612869;86;21122;-69
2021/09/13 07:10:18;;;;;;;16.67;12.57;;;;;;;20.20;60.41;100294.81;1581266;86;21635;-69
2021/09/13 07:12:47;;;;;;;19.13;12.90;;;;;;;20.32;59.92;100297.05;1622358;86;21615;-69
2021/09/13 07:15:18;;;;;;;17.50;13.57;;;;;;;20.45;59.73;100295.78;1623869;86;21058;-69
2021/09/13 07:17:46;;;;;;;17.70;13.62;;;;;;;20.58;59.63;100294.77;1622671;86;21065;-69
2021/09/13 07:20:13;;;;;;;16.33;12.23;;;;;;;20.72;59.29;100296.64;1634599;86;21081;-69
2021/09/13 07:22:42;;;;;;;17.97;12.67;;;;;;;20.83;58.08;100301.13;1626696;86;21133;-68
2021/09/13 07:25:10;;;;;;;17.07;12.77;;;;;;;20.92;57.86;100295.61;1637255;85;21913;-69
2021/09/13 07:27:37;;;;;;;18.67;14.70;;;;;;;21.05;57.31;100298.61;1642212;85;21070;-68
2021/09/13 07:30:07;;;;;;;16.03;12.07;;;;;;;21.14;56.69;100299.89;1624769;86;21042;-69
2021/09/13 07:32:34;;;;;;;15.33;11.07;;;;;;;21.22;56.47;100297.11;1621468;86;21150;-70
2021/09/13 07:35:01;;;;;;;13.40;10.83;;;;;;;21.32;55.58;100304.02;1639761;86;21077;-73
2021/09/13 07:37:29;;;;;;;14.60;11.83;;;;;;;21.38;54.94;100305.42;1622396;86;21156;-74
2021/09/13 07:39:56;;;;;;;15.70;11.00;;;;;;;21.45;54.56;100302.16;1642668;85;21467;-74
2021/09/13 07:42:23;;;;;;;16.10;10.77;;;;;;;21.56;54.96;100306.05;1614613;86;21070;-68
2021/09/13 07:44:51;;;;;;;14.27;10.63;;;;;;;21.65;53.37;100304.03;1637060;85;21249;-69
2021/09/13 07:47:19;;;;;;;15.60;12.23;;;;;;;21.73;53.61;100309.91;1612632;86;21121;-69
2021/09/13 07:49:46;;;;;;;14.60;11.17;;;;;;;21.87;54.57;100302.00;1640178;86;21158;-70
2021/09/13 07:52:14;;;;;;;14.30;11.47;;;;;;;21.98;54.78;100305.30;1634655;86;21088;-70
2021/09/13 07:54:40;;;;;;;15.07;11.10;;;;;;;22.10;54.71;100303.70;1624671;87;21044;-69
2021/09/13 07:57:08;;;;;;;12.73;10.43;;;;;;;22.24;54.10;100298.18;1641174;85;21121;-69
2021/09/13 07:59:35;;;;;;;14.17;10.20;;;;;;;22.38;53.58;100293.73;1623926;86;21360;-74
2021/09/13 08:02:03;;;;;;;13.83;10.67;;;;;;;22.50;53.15;100302.42;1632548;87;22296;-69
2021/09/13 08:04:30;;;;;;;13.60;10.57;;;;;;;22.59;53.13;100294.92;1625327;86;21625;-71
2021/09/13 08:06:57;;;;;;;12.07;10.03;;;;;;;22.70;52.78;100294.69;1623016;88;21087;-70
2021/09/13 08:09:26;;;;;;;12.20;10.20;;;;;;;22.80;51.76;100293.95;1651300;86;21099;-70
2021/09/13 08:11:53;;;;;;;13.20;10.23;;;;;;;22.84;50.46;100292.14;1613232;87;22183;-70
2021/09/13 08:14:22;;;;;;;13.33;9.93;;;;;;;22.83;50.57;100285.09;1636852;86;21912;-77
2021/09/13 08:16:51;;;;;;;13.13;9.80;;;;;;;22.89;50.46;100286.44;1617668;86;21083;-71
2021/09/13 08:19:19;;;;;;;12.27;9.57;;;;;;;23.01;50.64;100285.64;1648544;85;21108;-72
2021/09/13 08:21:48;;;;;;;14.73;10.07;;;;;;;23.12;50.87;100288.86;1655277;86;21099;-72
2021/09/13 08:24:17;;;;;;;12.30;10.33;;;;;;;23.21;50.18;100289.28;1640198;86;21082;-73
2021/09/13 08:26:45;;;;;;;14.23;9.87;;;;;;;23.27;50.66;100288.69;1647337;85;21237;-72
2021/09/13 08:29:15;;;;;;;13.47;10.13;;;;;;;23.36;49.80;100281.69;1639804;85;22300;-72
2021/09/13 08:31:42;;;;;;;13.50;10.27;;;;;;;23.41;49.49;100280.87;1623251;86;21175;-71
2021/09/13 08:34:09;;;;;;;11.97;9.40;;;;;;;23.48;49.07;100280.27;1642383;86;21070;-73
2021/09/13 08:36:35;;;;;;;14.43;10.40;;;;;;;23.59;49.27;100283.25;1633411;86;21541;-73
2021/09/13 08:39:04;;;;;;;13.57;9.77;;;;;;;23.71;49.40;100272.88;1640578;86;21154;-72
2021/09/13 08:41:32;;;;;;;11.30;9.60;;;;;;;23.84;49.64;100278.45;1638279;86;21153;-71
2021/09/13 08:44:00;;;;;;;14.23;9.80;;;;;;;23.95;48.51;100276.75;1638751;86;21141;-69
2021/09/13 08:49:27;;;;;;;14.53;9.87;;;;;;;24.17;47.54;100275.31;1627247;86;21126;-72
2021/09/13 08:51:43;;;;;;;11.83;9.17;;;;;;;24.25;47.84;100276.26;1627885;86;21609;-71
2021/09/13 08:54:12;;;;;;;12.50;9.43;;;;;;;24.39;47.91;100273.86;1624295;87;21522;-70
2021/09/13 08:56:45;;;;;;;12.33;9.37;;;;;;;24.56;47.31;100274.83;1642805;85;21880;-69
2021/09/13 08:59:15;;;;;;;12.07;8.97;;;;;;;24.69;46.31;100271.39;1626568;86;21106;-71
2021/09/13 09:01:43;;;;;;;11.57;8.53;;;;;;;24.74;45.78;100277.92;1630581;86;21035;-70
2021/09/13 09:04:13;;;;;;;12.93;9.27;;;;;;;24.78;45.57;100265.14;1618040;86;22300;-71
2021/09/13 09:06:42;;;;;;;13.40;9.33;;;;;;;24.78;44.53;100270.61;1614154;87;21085;-70
2021/09/13 09:09:17;;;;;;;12.43;10.13;;;;;;;24.78;45.98;100262.99;1614967;87;22333;-70
2021/09/13 09:12:02;;;;;;;12.13;9.07;;;;;;;24.87;45.63;100270.95;1618239;86;21039;-70
2021/09/13 09:14:39;;;;;;;10.47;9.10;;;;;;;24.95;45.14;100263.91;1604329;86;21074;-75
2021/09/13 09:17:25;;;;;;;13.53;9.07;;;;;;;25.05;44.21;100263.89;1619917;86;21143;-74
2021/09/13 09:20:10;;;;;;;12.93;9.73;;;;;;;25.14;43.04;100267.23;1641371;85;21086;-75
2021/09/13 09:22:42;;;;;;;13.77;9.07;;;;;;;25.23;43.58;100262.30;1633854;86;21863;-74
2021/09/13 09:25:12;;;;;;;15.18;9.10;;;;;;;25.30;42.87;100256.74;1642801;86;21107;-75
2021/09/13 09:28:01;;;;;;;13.70;8.70;;;;;;;25.36;41.68;100260.17;1649660;85;21094;-76
2021/09/13 09:30:46;;;;;;;11.87;8.63;;;;;;;25.42;41.31;100251.89;1616509;87;22431;-75
2021/09/13 09:33:23;;;;;;;10.40;8.20;;;;;;;25.44;40.71;100252.33;1612299;88;21621;-75
2021/09/13 09:35:50;;;;;;;10.27;8.40;;;;;;;25.41;40.37;100248.95;1645400;85;21112;-74
2021/09/13 09:38:35;;;;;;;11.85;8.48;;;;;;;25.42;41.09;100248.37;1633162;86;21070;-74
2021/09/13 09:41:06;;;;;;;13.17;8.53;;;;;;;25.48;40.19;100250.43;1646407;85;21123;-76
2021/09/13 09:44:00;;;;;;;11.60;8.50;;;;;;;25.57;39.01;100244.73;1633854;86;21157;-74
2021/09/13 09:46:42;;;;;;;9.70;8.10;;;;;;;25.66;38.90;100248.55;1621798;86;21082;-74
2021/09/13 09:49:15;;;;;;;11.15;8.18;;;;;;;25.73;38.88;100247.30;1620974;86;21104;-74
2021/09/13 09:51:52;;;;;;;11.03;8.33;;;;;;;25.76;38.68;100247.94;1642441;85;21255;-75
2021/09/13 09:54:23;;;;;;;10.17;8.37;;;;;;;25.76;38.53;100249.30;1629261;86;21049;-74
2021/09/13 09:57:07;;;;;;;10.30;8.30;;;;;;;25.79;38.82;100250.52;1625905;86;26385;-72
2021/09/13 09:59:39;;;;;;;10.63;8.53;;;;;;;25.84;39.23;100244.20;1645971;86;21016;-72
2021/09/13 10:02:17;;;;;;;10.30;8.38;;;;;;;25.90;37.37;100240.58;1609275;87;21084;-72
2021/09/13 10:04:48;;;;;;;10.37;8.47;;;;;;;25.87;38.40;100244.05;1642855;85;21122;-73
2021/09/13 10:07:24;;;;;;;10.33;7.93;;;;;;;25.92;38.43;100239.61;1639016;86;21083;-72
2021/09/13 10:10:04;;;;;;;10.15;8.18;;;;;;;26.06;38.36;100240.39;1638731;86;21574;-74
2021/09/13 10:12:31;;;;;;;10.97;8.30;;;;;;;26.18;36.83;100241.55;1627179;86;21070;-72
2021/09/13 10:15:10;;;;;;;11.37;9.13;;;;;;;26.17;37.11;100240.76;1637400;86;21125;-71
2021/09/13 10:17:43;;;;;;;9.60;7.90;;;;;;;26.17;36.76;100232.55;1631605;85;21140;-72
2021/09/13 10:20:13;;;;;;;11.50;8.85;;;;;;;26.15;37.22;100232.70;1627285;87;21496;-72
2021/09/13 10:22:46;;;;;;;11.23;8.27;;;;;;;26.12;37.41;100235.59;1629171;87;21841;-72
2021/09/13 10:25:16;;;;;;;9.87;8.63;;;;;;;26.09;36.76;100227.34;1629470;86;21172;-72
2021/09/13 10:27:47;;;;;;;11.77;8.80;;;;;;;26.12;38.00;100222.49;1622116;87;21639;-70
2021/09/13 10:30:26;;;;;;;9.25;7.70;;;;;;;26.22;37.14;100215.58;1602288;88;27625;-72
2021/09/13 10:32:55;;;;;;;12.13;8.53;;;;;;;26.31;37.26;100217.47;1616178;88;21539;-72
2021/09/13 10:35:48;;;;;;;11.93;8.20;;;;;;;26.29;36.70;100214.30;1627390;87;21207;-73
2021/09/13 10:38:45;;;;;;;11.07;9.20;;;;;;;26.28;36.35;100211.36;1624448;86;21114;-72
2021/09/13 10:41:58;;;;;;;11.27;7.83;;;;;;;26.27;36.81;100210.58;1656777;86;21108;-72
2021/09/13 10:44:33;;;;;;;9.97;7.60;;;;;;;26.32;37.00;100209.45;1651867;85;21071;-70
2021/09/13 10:47:05;;;;;;;11.20;8.13;;;;;;;26.48;36.50;100209.29;1642669;86;21026;-69
2021/09/13 10:49:34;;;;;;;9.67;8.47;;;;;;;26.50;36.35;100201.50;1626864;86;21623;-69
2021/09/13 10:52:35;;;;;;;10.72;8.45;;;;;;;26.48;36.31;100201.86;1627109;87;21082;-69
2021/09/13 10:55:26;;;;;;;9.63;8.30;;;;;;;26.51;36.69;100201.70;1637472;86;21090;-70
2021/09/13 10:58:10;;;;;;;11.87;8.70;;;;;;;26.55;36.98;100195.09;1632658;86;21089;-70
2021/09/13 11:00:48;;;;;;;8.87;7.97;;;;;;;26.61;36.51;100199.66;1647635;86;21632;-69
2021/09/13 11:03:31;;;;;;;13.33;8.67;;;;;;;26.64;36.29;100186.59;1654977;86;21531;-73
2021/09/13 11:06:20;;;;;;;11.57;8.20;;;;;;;26.61;35.35;100186.75;1648029;86;21605;-74
2021/09/13 11:08:59;;;;;;;10.20;7.80;;;;;;;26.53;35.57;100189.80;1636174;86;21062;-75
2021/09/13 11:11:51;;;;;;;10.73;8.07;;;;;;;26.52;36.27;100195.05;1617981;86;21115;-73
2021/09/13 11:14:22;;;;;;;10.67;7.27;;;;;;;26.56;35.13;100185.73;1628437;88;21658;-75
2021/09/13 11:17:08;;;;;;;10.40;7.50;;;;;;;26.60;35.05;100183.03;1651480;86;21126;-69
2021/09/13 11:19:45;;;;;;;8.65;7.17;;;;;;;26.59;34.32;100173.24;1668077;85;21638;-69
2021/09/13 11:22:26;;;;;;;11.33;7.60;;;;;;;26.58;34.75;100170.28;1631564;86;21072;-69
2021/09/13 11:24:54;;;;;;;10.20;7.67;;;;;;;26.62;34.34;100172.47;1609163;88;21084;-69
2021/09/13 11:27:23;;;;;;;9.60;7.20;;;;;;;26.66;34.46;100169.98;1654647;86;21113;-70
2021/09/13 11:29:57;;;;;;;8.97;7.83;;;;;;;26.74;34.71;100171.43;1654675;86;22111;-70
2021/09/13 11:32:31;;;;;;;9.20;7.47;;;;;;;26.78;35.03;100166.18;1650543;86;21074;-70
2021/09/13 11:35:01;;;;;;;8.50;7.33;;;;;;;26.81;34.52;100168.17;1605475;88;21089;-69
2021/09/13 11:37:35;;;;;;;12.57;8.10;;;;;;;26.84;34.36;100169.37;1650937;86;21120;-70